Sarfaq Ittuk — OWDD — position and weather

sailwx.info

Track history (hours):
 
Tides and Currents Weather Stations Pressure Air Temp Water Temp Dewpoint Dewpoint Depression Visibility Wind Speed Wind Dir Waves Ship Positions

Sarfaq Ittuk

Last reported at 2019-Apr-23 14:33 UTC. Time now 2019-Apr-25 01:52 UTC.
Position N 63°29' W 051°34'.

Length 73 m; beam 11.1 m; draft 3.7 m.

Type: Passenger vessel. MMSI: 331000499.

Date/timePositionNaut miles runAvg speedWind from/ knotsBaromVisibWave heightAir tempDewpointWater temp
2019-Apr-23 14:33N 63°29' W 051°34'1411.9
2019-Apr-23 13:21N 63°43' W 051°37'512.7
2019-Apr-23 12:59N 63°48' W 051°35'812.5
2019-Apr-23 12:19N 63°56' W 051°35'412.7
2019-Apr-23 12:01N 63°59' W 051°40'612.3
2019-Apr-23 11:30N 64°06' W 051°39'510.3
2019-Apr-23 11:00N 64°10' W 051°43'0 0.0
2019-Apr-23 10:31N 64°10' W 051°43'0 0.0
2019-Apr-23 10:00N 64°10' W 051°43'0 0.0
2019-Apr-23 09:30N 64°10' W 051°43'0 0.0
2019-Apr-23 09:01N 64°10' W 051°43'2 4.8
2019-Apr-23 08:30N 64°09' W 051°47'5 9.3
2019-Apr-23 08:00N 64°06' W 051°57'510.0
2019-Apr-23 07:30N 64°04' W 052°07'5 9.5
2019-Apr-23 07:00N 64°07' W 052°16'611.2
2019-Apr-23 06:30N 64°11' W 052°23'611.4
2019-Apr-23 06:00N 64°17' W 052°26'611.2
2019-Apr-23 05:31N 64°22' W 052°29'611.4
2019-Apr-23 05:00N 64°28' W 052°32'611.2
2019-Apr-23 04:30N 64°33' W 052°34'611.4
2019-Apr-23 04:00N 64°39' W 052°37'612.0
2019-Apr-23 03:30N 64°45' W 052°40'612.4
2019-Apr-23 03:00N 64°51' W 052°42'612.4
2019-Apr-23 02:30N 64°57' W 052°45'612.2
2019-Apr-23 02:00N 65°03' W 052°48'611.9
2019-Apr-23 01:30N 65°09' W 052°51'35 7.2
2019-Apr-22 20:39N 65°42' W 053°20'2 9.5
2019-Apr-22 20:29N 65°43' W 053°20'  
2019-Apr-20 06:26N 65°06' W 052°49'4 9.0
2019-Apr-20 06:00N 65°02' W 052°47'510.3
2019-Apr-20 05:30N 64°57' W 052°45'510.8
2019-Apr-20 05:00N 64°51' W 052°43'510.6
2019-Apr-20 04:31N 64°46' W 052°40'510.4
2019-Apr-20 04:00N 64°41' W 052°38'510.6
2019-Apr-20 03:30N 64°36' W 052°36'510.5
2019-Apr-20 03:00N 64°31' W 052°33'510.6
2019-Apr-20 02:31N 64°26' W 052°31'510.6
2019-Apr-20 02:00N 64°20' W 052°28'510.5
2019-Apr-20 01:30N 64°15' W 052°25'510.4
2019-Apr-20 01:00N 64°10' W 052°22'510.8
2019-Apr-20 00:30N 64°06' W 052°15'5 9.6
2019-Apr-20 00:00N 64°05' W 052°04'612.4
2019-Apr-19 23:31N 64°08' W 051°52'5 9.4
2019-Apr-19 23:01N 64°10' W 051°43'0 0.0
2019-Apr-19 22:30N 64°10' W 051°43'0 0.0
2019-Apr-19 22:00N 64°10' W 051°43'0 0.0
2019-Apr-19 21:30N 64°10' W 051°43'0 0.0
2019-Apr-19 21:00N 64°10' W 051°43'0 0.0
2019-Apr-19 20:31N 64°10' W 051°43'0 0.0
2019-Apr-19 20:00N 64°10' W 051°43'0 0.0
2019-Apr-19 19:30N 64°10' W 051°43'0 0.0
2019-Apr-19 19:01N 64°10' W 051°43'0 0.0
2019-Apr-19 18:30N 64°10' W 051°43'0 0.0
2019-Apr-19 18:00N 64°10' W 051°43'0 0.0
2019-Apr-19 17:30N 64°10' W 051°43'0 0.0
2019-Apr-19 17:00N 64°10' W 051°43'0 0.0
2019-Apr-19 16:30N 64°10' W 051°43'0 0.0
2019-Apr-19 16:00N 64°10' W 051°43'0 0.0
2019-Apr-19 15:30N 64°10' W 051°43'0 0.0
2019-Apr-19 15:00N 64°10' W 051°43'0 0.0
2019-Apr-19 14:30N 64°10' W 051°43'0 0.0
2019-Apr-19 14:00N 64°10' W 051°43'0 0.0
2019-Apr-19 13:30N 64°10' W 051°43'0 0.0
2019-Apr-19 13:00N 64°10' W 051°43'0 0.0
2019-Apr-19 12:30N 64°10' W 051°43'0 0.0
2019-Apr-19 12:00N 64°10' W 051°43'0 0.0
2019-Apr-19 11:30N 64°10' W 051°43'2 4.1
2019-Apr-19 11:00N 64°08' W 051°42'510.3
2019-Apr-19 10:30N 64°03' W 051°38'5 9.6
2019-Apr-19 10:00N 63°59' W 051°39'611.2
2019-Apr-19 09:29N 63°53' W 051°34'612.4
2019-Apr-19 08:58N 63°47' W 051°35'  
2019-Apr-16 14:30N 63°29' W 051°34'1511.6
2019-Apr-16 13:15N 63°44' W 051°36'413.0
2019-Apr-16 12:56N 63°48' W 051°35'613.1
2019-Apr-16 12:29N 63°54' W 051°34'612.8
2019-Apr-16 12:00N 63°59' W 051°40'612.6
2019-Apr-16 11:30N 64°06' W 051°39'510.2
2019-Apr-16 11:00N 64°10' W 051°43'0 0.0
2019-Apr-16 10:30N 64°10' W 051°43'0 0.0
2019-Apr-16 10:00N 64°10' W 051°43'0 0.0
2019-Apr-16 09:30N 64°10' W 051°43'0 0.0
2019-Apr-16 09:00N 64°10' W 051°43'2 4.4
2019-Apr-16 08:30N 64°09' W 051°47'5 9.2
2019-Apr-16 08:00N 64°07' W 051°56'5 9.8
2019-Apr-16 07:30N 64°04' W 052°06'4 8.5
2019-Apr-16 07:00N 64°06' W 052°15'611.4
2019-Apr-16 06:31N 64°11' W 052°22'611.5
2019-Apr-16 06:00N 64°16' W 052°26'611.6
2019-Apr-16 05:30N 64°22' W 052°29'611.5
2019-Apr-16 05:00N 64°28' W 052°32'611.5
2019-Apr-16 04:30N 64°33' W 052°34'611.4
2019-Apr-16 04:00N 64°39' W 052°37'611.4
2019-Apr-16 03:30N 64°44' W 052°40'611.5
2019-Apr-16 03:00N 64°50' W 052°42'611.3
2019-Apr-16 02:30N 64°56' W 052°44'611.7
2019-Apr-16 02:00N 65°01' W 052°47'612.1
2019-Apr-16 01:31N 65°07' W 052°50'38 8.2
2019-Apr-15 20:49N 65°43' W 053°20'  
2019-Apr-13 15:04N 65°51' W 053°29'  
Track history (hours):
 
Tides and Currents Weather Stations Pressure Air Temp Water Temp Dewpoint Dewpoint Depression Visibility Wind Speed Wind Dir Waves Ship Positions

Sarfaq Ittuk

Last reported at 2019-Apr-23 14:33 UTC. Time now 2019-Apr-25 01:52 UTC.
Position N 63°29' W 051°34'.

Length 73 m; beam 11.1 m; draft 3.7 m.

Type: Passenger vessel. MMSI: 331000499.

Date/timePositionNaut miles runAvg speedWind from/ knotsBaromVisibWave heightAir tempDewpointWater temp
2019-Apr-23 14:33N 63°29' W 051°34'1411.9
2019-Apr-23 13:21N 63°43' W 051°37'512.7
2019-Apr-23 12:59N 63°48' W 051°35'812.5
2019-Apr-23 12:19N 63°56' W 051°35'412.7
2019-Apr-23 12:01N 63°59' W 051°40'612.3
2019-Apr-23 11:30N 64°06' W 051°39'510.3
2019-Apr-23 11:00N 64°10' W 051°43'0 0.0
2019-Apr-23 10:31N 64°10' W 051°43'0 0.0
2019-Apr-23 10:00N 64°10' W 051°43'0 0.0
2019-Apr-23 09:30N 64°10' W 051°43'0 0.0
2019-Apr-23 09:01N 64°10' W 051°43'2 4.8
2019-Apr-23 08:30N 64°09' W 051°47'5 9.3
2019-Apr-23 08:00N 64°06' W 051°57'510.0
2019-Apr-23 07:30N 64°04' W 052°07'5 9.5
2019-Apr-23 07:00N 64°07' W 052°16'611.2
2019-Apr-23 06:30N 64°11' W 052°23'611.4
2019-Apr-23 06:00N 64°17' W 052°26'611.2
2019-Apr-23 05:31N 64°22' W 052°29'611.4
2019-Apr-23 05:00N 64°28' W 052°32'611.2
2019-Apr-23 04:30N 64°33' W 052°34'611.4
2019-Apr-23 04:00N 64°39' W 052°37'612.0
2019-Apr-23 03:30N 64°45' W 052°40'612.4
2019-Apr-23 03:00N 64°51' W 052°42'612.4
2019-Apr-23 02:30N 64°57' W 052°45'612.2
2019-Apr-23 02:00N 65°03' W 052°48'611.9
2019-Apr-23 01:30N 65°09' W 052°51'35 7.2
2019-Apr-22 20:39N 65°42' W 053°20'2 9.5
2019-Apr-22 20:29N 65°43' W 053°20'  
2019-Apr-20 06:26N 65°06' W 052°49'4 9.0
2019-Apr-20 06:00N 65°02' W 052°47'510.3
2019-Apr-20 05:30N 64°57' W 052°45'510.8
2019-Apr-20 05:00N 64°51' W 052°43'510.6
2019-Apr-20 04:31N 64°46' W 052°40'510.4
2019-Apr-20 04:00N 64°41' W 052°38'510.6
2019-Apr-20 03:30N 64°36' W 052°36'510.5
2019-Apr-20 03:00N 64°31' W 052°33'510.6
2019-Apr-20 02:31N 64°26' W 052°31'510.6
2019-Apr-20 02:00N 64°20' W 052°28'510.5
2019-Apr-20 01:30N 64°15' W 052°25'510.4
2019-Apr-20 01:00N 64°10' W 052°22'510.8
2019-Apr-20 00:30N 64°06' W 052°15'5 9.6
2019-Apr-20 00:00N 64°05' W 052°04'612.4
2019-Apr-19 23:31N 64°08' W 051°52'5 9.4
2019-Apr-19 23:01N 64°10' W 051°43'0 0.0
2019-Apr-19 22:30N 64°10' W 051°43'0 0.0
2019-Apr-19 22:00N 64°10' W 051°43'0 0.0
2019-Apr-19 21:30N 64°10' W 051°43'0 0.0
2019-Apr-19 21:00N 64°10' W 051°43'0 0.0
2019-Apr-19 20:31N 64°10' W 051°43'0 0.0
2019-Apr-19 20:00N 64°10' W 051°43'0 0.0
2019-Apr-19 19:30N 64°10' W 051°43'0 0.0
2019-Apr-19 19:01N 64°10' W 051°43'0 0.0
2019-Apr-19 18:30N 64°10' W 051°43'0 0.0
2019-Apr-19 18:00N 64°10' W 051°43'0 0.0
2019-Apr-19 17:30N 64°10' W 051°43'0 0.0
2019-Apr-19 17:00N 64°10' W 051°43'0 0.0
2019-Apr-19 16:30N 64°10' W 051°43'0 0.0
2019-Apr-19 16:00N 64°10' W 051°43'0 0.0
2019-Apr-19 15:30N 64°10' W 051°43'0 0.0
2019-Apr-19 15:00N 64°10' W 051°43'0 0.0
2019-Apr-19 14:30N 64°10' W 051°43'0 0.0
2019-Apr-19 14:00N 64°10' W 051°43'0 0.0
2019-Apr-19 13:30N 64°10' W 051°43'0 0.0
2019-Apr-19 13:00N 64°10' W 051°43'0 0.0
2019-Apr-19 12:30N 64°10' W 051°43'0 0.0
2019-Apr-19 12:00N 64°10' W 051°43'0 0.0
2019-Apr-19 11:30N 64°10' W 051°43'2 4.1
2019-Apr-19 11:00N 64°08' W 051°42'510.3
2019-Apr-19 10:30N 64°03' W 051°38'5 9.6
2019-Apr-19 10:00N 63°59' W 051°39'611.2
2019-Apr-19 09:29N 63°53' W 051°34'612.4
2019-Apr-19 08:58N 63°47' W 051°35'  
2019-Apr-16 14:30N 63°29' W 051°34'1511.6
2019-Apr-16 13:15N 63°44' W 051°36'413.0
2019-Apr-16 12:56N 63°48' W 051°35'613.1
2019-Apr-16 12:29N 63°54' W 051°34'612.8
2019-Apr-16 12:00N 63°59' W 051°40'612.6
2019-Apr-16 11:30N 64°06' W 051°39'510.2
2019-Apr-16 11:00N 64°10' W 051°43'0 0.0
2019-Apr-16 10:30N 64°10' W 051°43'0 0.0
2019-Apr-16 10:00N 64°10' W 051°43'0 0.0
2019-Apr-16 09:30N 64°10' W 051°43'0 0.0
2019-Apr-16 09:00N 64°10' W 051°43'2 4.4
2019-Apr-16 08:30N 64°09' W 051°47'5 9.2
2019-Apr-16 08:00N 64°07' W 051°56'5 9.8
2019-Apr-16 07:30N 64°04' W 052°06'4 8.5
2019-Apr-16 07:00N 64°06' W 052°15'611.4
2019-Apr-16 06:31N 64°11' W 052°22'611.5
2019-Apr-16 06:00N 64°16' W 052°26'611.6
2019-Apr-16 05:30N 64°22' W 052°29'611.5
2019-Apr-16 05:00N 64°28' W 052°32'611.5
2019-Apr-16 04:30N 64°33' W 052°34'611.4
2019-Apr-16 04:00N 64°39' W 052°37'611.4
2019-Apr-16 03:30N 64°44' W 052°40'611.5
2019-Apr-16 03:00N 64°50' W 052°42'611.3
2019-Apr-16 02:30N 64°56' W 052°44'611.7
2019-Apr-16 02:00N 65°01' W 052°47'612.1
2019-Apr-16 01:31N 65°07' W 052°50'38 8.2
2019-Apr-15 20:49N 65°43' W 053°20'  
2019-Apr-13 15:04N 65°51' W 053°29'  

Dump ship's entire track history